Latest Weather Observations for Dartmoor

IDV60801

Issued at 11:35 pm EST Thursday 31 July 2014 (issued every 30 minutes, with the page automatically refreshed every 10 minutes)

About weather observations | Map of weather stations | Latest weather observations for VIC | Other Formats
Station Details ID: 090194 Name: DARTMOOR Lat: -37.92 Lon: 141.26 Height: 51.0 m
Data from the previous 72 hours. | See also: Recent months at Dartmoor
Date/Time
EST
Temp
°C
App
Temp
°C
Dew
Point
Rel
Hum
%
Delta-T
°C
Wind Press
QNH
hPa
Press
MSL
hPa
Rain
since 9 am
mm
Dir
 
Spd
km/h
Gust
km/h
Spd
kts
Gust
kts
31/11:30pm 5.4 1.5 5.3 99 0.0 NW 15 20 8 11 1002.2 - 11.6
31/11:00pm 6.0 1.8 5.9 99 0.0 NNW 17 28 9 15 1002.1 1002.2 11.2
31/10:30pm 5.6 1.0 5.5 99 0.0 NW 19 32 10 17 1001.9 - 11.2
31/10:00pm 5.4 3.0 5.3 99 0.0 NW 7 17 4 9 1002.6 1002.7 11.0
31/09:30pm 4.8 1.9 4.4 97 0.2 NW 9 15 5 8 1002.2 - 10.8
31/09:00pm 5.7 1.7 4.8 94 0.4 WNW 15 22 8 12 1001.7 1001.8 10.8
31/08:30pm 6.1 1.8 5.4 95 0.3 WNW 17 26 9 14 1001.7 - 10.8
31/08:00pm 6.2 2.7 5.3 94 0.4 W 13 26 7 14 1001.0 1001.1 10.2
31/07:30pm 6.3 2.7 5.1 92 0.5 NW 13 22 7 12 1000.5 - 9.8
31/07:00pm 6.8 3.9 6.5 98 0.1 NW 11 17 6 9 1000.4 1000.5 9.8
31/06:30pm 7.1 3.7 6.0 93 0.5 WNW 13 24 7 13 999.9 - 9.8
31/06:00pm 8.6 2.8 4.6 76 1.8 WNW 24 37 13 20 999.6 999.7 9.8
31/05:30pm 8.4 3.7 5.0 79 1.5 WNW 19 30 10 16 999.3 - 9.8
31/05:00pm 8.6 2.8 4.4 75 1.9 WNW 24 35 13 19 998.5 998.6 9.8
31/04:30pm 8.8 1.9 4.6 75 1.9 WNW 30 50 16 27 998.3 - 9.8
31/04:26pm 8.9 2.3 4.3 73 2.0 WNW 28 50 15 27 998.1 - 9.8
31/04:00pm 8.5 3.4 6.0 84 1.2 WNW 22 43 12 23 998.1 998.2 9.8
31/03:30pm 8.3 3.9 7.5 95 0.4 NW 20 30 11 16 997.9 - 9.8
31/03:00pm 7.5 2.3 7.4 99 0.0 WNW 24 37 13 20 998.1 998.2 9.8
31/02:30pm 8.1 3.3 7.2 94 0.4 WNW 22 33 12 18 997.6 - 9.4
31/02:00pm 7.8 3.0 7.2 96 0.3 NW 22 30 12 16 997.4 997.5 9.2
31/01:30pm 7.3 0.0 7.2 99 0.0 W 35 61 19 33 997.0 - 9.2
31/01:15pm 7.5 1.6 7.5 100 0.0 W 28 46 15 25 998.2 - 8.8
31/01:00pm 7.8 2.4 7.8 100 0.0 WNW 26 44 14 24 997.9 998.0 8.4
31/12:30pm 8.3 3.7 8.3 100 0.0 W 22 39 12 21 997.7 - 8.0
31/12:00pm 8.4 3.5 8.4 100 0.0 W 24 41 13 22 997.1 997.2 6.8
31/11:30am 8.3 0.5 8.3 100 0.0 WSW 39 61 21 33 997.0 - 6.6
31/11:06am 9.6 2.5 9.6 100 0.0 WSW 37 57 20 31 996.3 - 5.0
31/11:00am 9.8 6.2 9.8 100 0.0 WNW 19 30 10 16 996.2 996.3 4.4
31/10:31am 11.7 4.7 11.1 96 0.3 W 39 59 21 32 995.9 - 1.0
31/10:30am 12.7 6.7 12.1 96 0.3 WNW 35 54 19 29 995.6 - 0.4
31/10:06am 13.5 7.4 11.7 89 1.0 NNW 35 54 19 29 994.1 - 0.0
31/10:00am 13.2 7.5 11.8 91 0.8 NNW 33 52 18 28 994.2 994.2 0.0
31/09:30am 12.4 5.8 11.3 93 0.6 NNW 37 56 20 30 994.6 - 0.0
31/09:00am 12.9 5.6 11.5 91 0.7 NNW 41 65 22 35 995.1 995.2 3.4
31/08:30am 12.4 5.0 11.1 92 0.7 N 41 61 22 33 995.5 - 3.4
31/08:00am 12.2 5.9 10.9 92 0.7 N 35 65 19 35 996.3 996.4 3.4
31/07:31am 12.2 5.1 10.9 92 0.7 NNW 39 67 21 36 996.6 - 3.4
31/07:30am 12.2 5.1 10.9 92 0.7 NNW 39 57 21 31 996.7 - 3.4
31/07:00am 12.6 5.6 11.3 92 0.7 NNW 39 59 21 32 997.0 997.1 3.4
31/06:34am 12.4 6.2 11.5 94 0.5 N 35 56 19 30 997.5 - 3.4
31/06:30am 12.3 6.6 11.7 96 0.3 NNW 33 50 18 27 997.6 - 3.4
31/06:14am 12.3 6.6 11.7 96 0.3 N 33 59 18 32 997.6 - 3.4
31/06:00am 12.0 6.5 11.8 99 0.1 NNW 32 46 17 25 998.0 998.1 3.4
31/05:30am 11.8 6.1 11.8 100 0.0 NNW 33 57 18 31 998.8 - 3.4
31/05:10am 12.4 6.8 12.2 99 0.1 N 33 54 18 29 998.5 - 3.2
31/05:00am 12.3 7.3 12.1 99 0.1 N 30 46 16 25 998.9 999.0 3.2
31/04:30am 11.8 8.2 11.8 100 0.0 N 22 32 12 17 999.7 - 3.0
31/04:00am 12.4 8.9 12.1 98 0.2 NNW 22 32 12 17 1000.7 1000.8 2.8
31/03:30am 13.1 8.0 12.0 93 0.6 NNW 30 44 16 24 1001.0 - 2.6
31/03:00am 13.0 7.7 12.5 97 0.3 NNW 32 50 17 27 1001.6 1001.7 2.6
31/02:53am 12.9 8.4 12.6 98 0.2 NNW 28 50 15 27 1001.7 - 2.6
31/02:30am 12.9 8.8 12.6 98 0.2 NNW 26 41 14 22 1002.0 - 2.6
31/02:09am 13.2 8.6 12.4 95 0.4 NNW 28 46 15 25 1002.3 - 2.6
31/02:00am 13.1 8.6 12.5 96 0.3 NNW 28 41 15 22 1002.3 1002.4 2.6
31/01:30am 13.0 8.6 12.8 99 0.1 NNW 28 44 15 24 1002.7 - 2.6
31/01:00am 13.2 8.4 12.9 98 0.2 NNW 30 52 16 28 1003.2 1003.3 2.6
31/12:30am 13.2 9.6 13.0 99 0.1 NNW 24 35 13 19 1004.1 - 2.6
31/12:00am 13.4 9.5 13.2 99 0.1 NNW 26 43 14 23 1004.7 1004.8 2.6
 
Date/Time
EST
Temp
°C
App
Temp
°C
Dew
Point
Rel
Hum
%
Delta-T
°C
Wind Press
QNH
hPa
Press
MSL
hPa
Rain
since 9 am
mm
Dir
 
Spd
km/h
Gust
km/h
Spd
kts
Gust
kts
30/11:48pm 13.3 8.6 13.1 99 0.1 NNW 30 50 16 27 1004.9 - 2.6
30/11:30pm 13.3 9.0 13.1 99 0.1 NNW 28 44 15 24 1005.2 - 2.6
30/11:00pm 13.1 8.8 13.1 100 0.0 NNW 28 41 15 22 1005.6 1005.7 2.6
30/10:40pm 13.3 8.1 12.8 97 0.3 NNW 32 50 17 27 1005.9 - 2.6
30/10:30pm 13.3 8.5 12.8 97 0.3 NNW 30 46 16 25 1006.3 - 2.6
30/10:00pm 13.5 9.2 13.3 99 0.1 NNW 28 44 15 24 1006.8 1006.9 2.6
30/09:30pm 13.3 9.0 13.3 100 0.0 NNW 28 39 15 21 1007.1 - 2.6
30/09:00pm 13.1 8.0 13.1 100 0.0 NNW 32 56 17 30 1007.3 1007.4 2.6
30/08:59pm 13.1 8.4 13.1 100 0.0 NNW 30 56 16 30 1007.3 - 2.6
30/08:30pm 13.6 9.0 13.4 99 0.1 NNW 30 44 16 24 1007.6 - 2.6
30/08:00pm 13.5 8.8 13.3 99 0.1 NNW 30 41 16 22 1008.1 1008.1 2.6
30/07:30pm 13.6 8.8 12.8 95 0.4 NNW 30 43 16 23 1008.1 - 2.6
30/07:00pm 13.1 10.2 12.9 99 0.1 NNW 20 28 11 15 1008.1 1008.1 2.6
30/06:30pm 13.9 9.3 12.3 90 0.9 NW 28 44 15 24 1008.3 - 2.6
30/06:00pm 14.1 9.8 12.1 88 1.1 NW 26 41 14 22 1008.3 1008.3 2.6
30/05:30pm 14.2 9.5 12.1 87 1.1 NW 28 43 15 23 1008.3 - 2.6
30/05:01pm 14.5 9.5 12.2 86 1.3 NW 30 50 16 27 1008.3 - 2.6
30/05:00pm 14.5 9.1 12.2 86 1.3 NW 32 50 17 27 1008.3 1008.3 2.6
30/04:31pm 14.6 9.6 12.3 86 1.3 NW 30 48 16 26 1008.4 - 2.6
30/04:30pm 14.7 9.4 12.4 86 1.3 NW 32 48 17 26 1008.4 - 2.6
30/04:15pm 14.9 10.0 12.6 86 1.3 NW 30 48 16 26 1008.3 - 2.6
30/04:00pm 14.7 10.2 13.7 94 0.6 NW 30 46 16 25 1008.5 1008.5 2.6
30/03:46pm 14.0 9.8 13.4 96 0.3 NW 28 48 15 26 1008.5 - 2.6
30/03:30pm 13.7 10.1 13.2 97 0.3 NW 24 43 13 23 1008.7 - 2.6
30/03:08pm 14.8 10.3 12.7 87 1.2 NW 28 48 15 26 1008.6 - 2.6
30/03:00pm 14.7 10.6 12.7 88 1.1 NW 26 41 14 22 1008.7 1008.7 2.6
30/02:32pm 14.9 10.5 12.9 88 1.1 NW 28 50 15 27 1008.8 - 2.6
30/02:30pm 14.9 10.9 12.9 88 1.1 NW 26 50 14 27 1008.8 - 2.6
30/02:16pm 15.0 10.8 13.4 90 0.9 NW 28 50 15 27 1008.7 - 2.6
30/02:00pm 15.0 11.9 14.5 97 0.3 NW 24 39 13 21 1009.0 1009.0 2.6
30/01:30pm 14.9 10.8 14.9 100 0.0 NW 30 44 16 24 1009.6 - 2.6
30/01:00pm 14.0 9.6 14.0 100 0.0 WNW 30 41 16 22 1010.0 1010.0 2.6
30/12:30pm 13.5 11.0 13.5 100 0.0 WNW 19 28 10 15 1010.3 - 1.4
30/12:00pm 14.8 11.0 14.6 99 0.1 NW 28 43 15 23 1010.5 1010.5 0.2
30/11:30am 15.1 11.8 14.9 99 0.1 WNW 26 39 14 21 1010.8 - 0.0
30/11:01am 14.7 10.5 14.7 100 0.0 NW 30 50 16 27 1011.2 - 0.0
30/11:00am 14.7 10.5 14.7 100 0.0 NW 30 48 16 26 1011.3 1011.4 0.0
30/10:55am 14.7 10.9 14.7 100 0.0 NW 28 48 15 26 1011.2 - 0.0
30/10:30am 14.5 11.4 14.5 100 0.0 NW 24 39 13 21 1010.9 - 0.0
30/10:00am 13.9 10.2 13.9 100 0.0 NW 26 43 14 23 1011.3 1011.4 0.0
30/09:30am 13.3 10.2 13.3 100 0.0 NW 22 35 12 19 1011.4 - 0.0
30/09:00am 12.7 9.9 12.7 100 0.0 NNW 19 26 10 14 1011.3 1011.4 8.6
30/08:30am 12.4 9.4 12.4 100 0.0 NNW 20 32 11 17 1011.4 - 8.6
30/08:00am 12.5 9.5 12.5 100 0.0 NNW 20 32 11 17 1011.2 1011.2 8.6
30/07:30am 12.2 8.7 12.2 100 0.0 NNW 22 33 12 18 1010.9 - 8.6
30/07:00am 12.2 9.3 12.2 100 0.0 NNW 19 30 10 16 1010.7 1010.7 8.6
30/06:30am 12.3 9.4 12.3 100 0.0 NNW 19 28 10 15 1010.7 - 8.6
30/06:00am 12.2 9.1 12.2 100 0.0 NNW 20 30 11 16 1010.7 1010.7 8.6
30/05:30am 12.1 9.9 12.1 100 0.0 NNW 15 24 8 13 1010.7 - 8.6
30/05:00am 11.7 10.1 11.7 100 0.0 NNW 11 20 6 11 1010.7 1010.7 8.4
30/04:30am 11.7 9.4 11.7 100 0.0 NNW 15 20 8 11 1010.8 - 8.4
30/04:00am 11.2 9.1 11.2 100 0.0 NNW 13 19 7 10 1011.0 1011.0 8.4
30/03:30am 11.3 9.2 11.3 100 0.0 NW 13 17 7 9 1011.3 - 8.4
30/03:00am 11.4 9.0 11.4 100 0.0 NW 15 20 8 11 1011.4 1011.5 8.4
30/02:30am 11.5 10.3 11.5 100 0.0 NW 9 19 5 10 1011.5 - 8.4
30/02:00am 11.1 9.8 11.1 100 0.0 NW 9 13 5 7 1011.8 1011.9 8.4
30/01:30am 11.7 9.8 11.7 100 0.0 WNW 13 19 7 10 1011.7 - 8.4
30/01:00am 12.0 9.8 12.0 100 0.0 WNW 15 20 8 11 1011.8 1011.9 8.4
30/12:30am 12.4 9.4 12.4 100 0.0 WNW 20 32 11 17 1011.6 - 8.4
30/12:00am 12.8 9.1 12.8 100 0.0 W 24 41 13 22 1011.3 1011.4 8.2
 
Date/Time
EST
Temp
°C
App
Temp
°C
Dew
Point
Rel
Hum
%
Delta-T
°C
Wind Press
QNH
hPa
Press
MSL
hPa
Rain
since 9 am
mm
Dir
 
Spd
km/h
Gust
km/h
Spd
kts
Gust
kts
29/11:30pm 13.1 10.3 13.1 100 0.0 NW 20 32 11 17 1011.0 - 6.2
29/11:00pm 13.2 11.4 13.2 100 0.0 WNW 15 22 8 12 1010.9 1010.9 6.0
29/10:30pm 13.4 9.5 13.4 100 0.0 WNW 26 43 14 23 1010.8 - 6.0
29/10:00pm 13.5 10.4 13.5 100 0.0 WNW 22 32 12 17 1010.5 1010.5 6.0
29/09:30pm 13.1 10.5 13.1 100 0.0 WNW 19 32 10 17 1010.5 - 6.0
29/09:00pm 13.6 10.9 13.6 100 0.0 NW 20 32 11 17 1010.2 1010.2 5.6
29/08:30pm 13.3 9.8 13.3 100 0.0 WNW 24 33 13 18 1010.0 - 5.6
29/08:00pm 13.3 9.4 13.3 100 0.0 NW 26 41 14 22 1009.8 1009.8 5.6
29/07:30pm 12.9 11.3 12.9 100 0.0 NW 13 19 7 10 1009.4 - 5.6
29/07:00pm 13.0 9.4 13.0 100 0.0 WNW 24 41 13 22 1009.2 1009.2 5.4
29/06:49pm 12.9 8.5 12.9 100 0.0 W 28 46 15 25 1009.2 - 5.0
29/06:30pm 13.0 9.8 13.0 100 0.0 W 22 37 12 20 1009.1 - 3.8
29/06:00pm 14.7 9.6 13.2 91 0.8 WNW 32 48 17 26 1008.3 1008.3 1.2
29/05:52pm 14.7 10.4 13.2 91 0.8 WNW 28 48 15 26 1008.3 - 1.2
29/05:30pm 14.8 9.7 13.2 90 0.9 NW 32 48 17 26 1008.1 - 1.2
29/05:13pm 15.0 9.7 13.2 89 1.0 NW 33 57 18 31 1007.8 - 1.2
29/05:00pm 14.9 9.8 13.1 89 1.0 WNW 32 48 17 26 1007.8 1007.9 1.2
29/04:30pm 15.2 9.5 13.1 87 1.2 WNW 35 56 19 30 1007.4 - 1.2
29/04:00pm 15.2 8.4 13.1 87 1.2 WNW 41 65 22 35 1007.3 1007.4 1.2
29/03:30pm 15.2 10.0 13.4 89 1.0 WNW 33 56 18 30 1007.1 - 1.2
29/03:00pm 14.7 10.5 14.7 100 0.0 WNW 30 52 16 28 1006.8 1006.9 1.2
29/02:57pm 14.5 10.2 14.5 100 0.0 WNW 30 52 16 28 1006.9 - 1.2
29/02:30pm 14.4 10.1 14.4 100 0.0 WNW 30 44 16 24 1006.8 - 1.2
29/02:06pm 14.6 9.2 13.8 95 0.4 WNW 35 56 19 30 1006.7 - 1.2
29/02:00pm 15.1 8.8 13.5 90 0.9 WNW 39 56 21 30 1006.5 1006.6 1.2
29/01:30pm 15.6 10.0 13.4 87 1.2 WNW 35 57 19 31 1006.5 - 1.2
29/01:00pm 15.9 10.1 13.9 88 1.1 WNW 37 59 20 32 1006.4 1006.5 1.2
29/12:36pm 15.5 10.4 14.7 95 0.5 WNW 35 56 19 30 1006.6 - 1.2
29/12:30pm 15.4 10.3 14.9 97 0.3 WNW 35 54 19 29 1006.7 - 1.2
29/12:04pm 14.7 10.1 14.7 100 0.0 WNW 32 50 17 27 1007.2 - 1.2
29/12:00pm 14.6 9.8 14.6 100 0.0 WNW 33 50 18 27 1007.3 1007.4 1.2
29/11:30am 14.2 10.2 14.2 100 0.0 NW 28 48 15 26 1007.3 - 0.8
29/11:00am 13.8 8.7 13.8 100 0.0 NW 33 54 18 29 1007.1 1007.2 0.4
29/10:34am 14.6 10.0 14.6 100 0.0 NW 32 52 17 28 1007.3 - 0.0
29/10:30am 14.6 9.8 14.6 100 0.0 NW 33 46 18 25 1007.4 - 0.0
29/10:15am 14.5 9.7 14.5 100 0.0 NW 33 52 18 28 1007.4 - 0.0
29/10:00am 14.3 9.6 14.3 100 0.0 NW 32 44 17 24 1007.1 1007.2 0.0
29/09:30am 13.8 9.3 13.8 100 0.0 NW 30 43 16 23 1007.3 - 0.0
29/09:00am 13.5 8.9 13.5 100 0.0 NW 30 44 16 24 1007.1 1007.2 2.4
29/08:54am 13.7 9.2 13.7 100 0.0 NNW 30 48 16 26 1006.9 - 2.4
29/08:30am 13.5 9.3 13.5 100 0.0 NNW 28 44 15 24 1006.7 - 2.4
29/08:00am 13.4 8.8 13.4 100 0.0 NNW 30 43 16 23 1006.8 1006.9 2.4
29/07:30am 13.3 8.3 13.3 100 0.0 NNW 32 48 17 26 1007.0 - 2.4
29/07:11am 13.1 8.8 13.1 100 0.0 NNW 28 50 15 27 1006.9 - 2.4
29/07:00am 12.9 9.3 12.9 100 0.0 NNW 24 37 13 20 1006.9 1007.0 2.4
29/06:30am 12.5 8.7 12.5 100 0.0 NNW 24 43 13 23 1006.8 - 2.2
29/06:00am 12.3 8.8 12.3 100 0.0 NNW 22 33 12 18 1006.7 1006.8 2.2
29/05:30am 12.3 8.1 12.3 100 0.0 NNW 26 39 14 21 1006.6 - 2.2
29/05:00am 12.6 8.9 12.6 100 0.0 NNW 24 39 13 21 1006.5 1006.6 2.0
29/04:30am 12.9 8.9 12.9 100 0.0 NNW 26 44 14 24 1006.5 - 1.8
29/04:00am 12.4 8.2 12.4 100 0.0 NNW 26 39 14 21 1006.7 1006.8 1.8
29/03:30am 12.1 7.8 12.1 100 0.0 NNW 26 39 14 21 1007.0 - 1.8
29/03:00am 12.2 7.9 12.2 100 0.0 NNW 26 37 14 20 1007.3 1007.4 1.8
29/02:30am 12.3 8.1 12.3 100 0.0 NNW 26 39 14 21 1007.5 - 1.8
29/02:00am 12.6 8.1 12.6 100 0.0 NNW 28 46 15 25 1008.0 1008.0 1.8
29/01:54am 12.6 8.1 12.6 100 0.0 NNW 28 46 15 25 1007.8 - 1.8
29/01:30am 12.4 7.8 12.4 100 0.0 NNW 28 43 15 23 1008.2 - 1.8
29/01:00am 12.1 8.2 12.1 100 0.0 NNW 24 37 13 20 1008.5 1008.5 1.8
29/12:30am 11.9 7.9 11.9 100 0.0 N 24 35 13 19 1009.0 - 1.8
29/12:00am 11.8 7.8 11.8 100 0.0 NNW 24 35 13 19 1009.4 1009.4 1.8

Other Formats:

Comma delimited format used in spreadsheet applications
http://www.bom.gov.au/fwo/IDV60801/IDV60801.95822.axf

JavaScript Object Notation format (JSON) in row-major order
http://www.bom.gov.au/fwo/IDV60801/IDV60801.95822.json